Time;durP1;ratioP1;P1;durP2;ratioP2;P2;SDS_P1;SDS_P2;PMS_P1;PMS_P2;Temp;Humidity;BMP_temperature;BMP_pressure;BME280_temperature;BME280_humidity;BME280_pressure;Samples;Min_cycle;Max_cycle;Signal;HPM_P1;HPM_P2
2022/07/24 00:00:33;;;;;;;7.15;6.00;;;20.80;99.90;;;;;;7346270;19;107112;-68
2022/07/24 00:03:00;;;;;;;8.20;6.80;;;20.80;99.90;;;;;;7345020;19;107832;-68
2022/07/24 00:05:27;;;;;;;14.25;6.95;;;20.80;99.90;;;;;;7344199;19;107281;-68
2022/07/24 00:07:54;;;;;;;8.20;6.88;;;20.60;99.90;;;;;;7346368;19;107283;-68
2022/07/24 00:10:22;;;;;;;8.10;7.15;;;20.60;99.90;;;;;;7347585;19;108407;-66
2022/07/24 00:12:49;;;;;;;10.18;7.97;;;20.60;99.90;;;;;;7349325;19;108252;-68
2022/07/24 00:15:16;;;;;;;10.25;8.25;;;20.70;99.90;;;;;;7345220;19;107503;-67
2022/07/24 00:17:43;;;;;;;11.43;8.30;;;20.70;99.90;;;;;;7346252;19;108288;-68
2022/07/24 00:20:10;;;;;;;11.93;8.43;;;20.70;99.90;;;;;;7351731;19;109116;-67
2022/07/24 00:22:38;;;;;;;13.88;8.65;;;20.70;99.90;;;;;;7348346;19;108134;-68
2022/07/24 00:25:05;;;;;;;10.88;8.82;;;20.60;99.90;;;;;;7344733;19;107572;-68
2022/07/24 00:27:32;;;;;;;9.32;8.30;;;20.50;99.90;;;;;;7344898;19;107338;-68
2022/07/24 00:30:00;;;;;;;10.95;8.48;;;20.50;99.90;;;;;;7340993;19;107899;-67
2022/07/24 00:32:27;;;;;;;11.27;7.70;;;20.50;99.90;;;;;;7344192;19;107205;-68
2022/07/24 00:34:54;;;;;;;9.23;8.35;;;20.50;99.90;;;;;;7340906;19;107340;-68
2022/07/24 00:37:21;;;;;;;9.77;8.40;;;20.50;99.90;;;;;;7343233;19;108233;-67
2022/07/24 00:39:48;;;;;;;10.63;8.48;;;20.50;99.90;;;;;;7343297;19;107745;-68
2022/07/24 00:42:15;;;;;;;12.05;8.82;;;20.60;99.90;;;;;;7349613;19;107206;-68
2022/07/24 00:44:43;;;;;;;12.23;8.75;;;20.60;99.90;;;;;;7344475;19;107816;-68
2022/07/24 00:47:10;;;;;;;10.50;8.93;;;20.60;99.90;;;;;;7343566;19;107624;-68
2022/07/24 00:49:37;;;;;;;12.30;9.30;;;20.50;99.90;;;;;;7343600;19;107816;-68
2022/07/24 00:52:04;;;;;;;10.20;9.23;;;20.50;99.90;;;;;;7342994;19;107069;-68
2022/07/24 00:54:31;;;;;;;12.00;10.75;;;20.50;99.90;;;;;;7343498;19;107157;-68
2022/07/24 00:56:59;;;;;;;13.65;10.85;;;20.40;99.90;;;;;;7339036;19;110779;-68
2022/07/24 00:59:26;;;;;;;12.27;10.13;;;20.40;99.90;;;;;;7338958;19;112831;-67
2022/07/24 01:01:53;;;;;;;18.42;11.60;;;20.30;99.90;;;;;;7338619;19;110691;-68
2022/07/24 01:04:21;;;;;;;12.68;11.27;;;20.20;99.90;;;;;;7344530;19;110223;-68
2022/07/24 01:06:48;;;;;;;12.57;10.50;;;20.20;99.90;;;;;;7338318;19;112255;-68
2022/07/24 01:09:16;;;;;;;11.20;10.05;;;20.20;99.90;;;;;;7338780;19;110311;-68
2022/07/24 01:11:44;;;;;;;12.18;11.07;;;20.20;99.90;;;;;;7335572;19;110361;-68
2022/07/24 01:14:13;;;;;;;11.77;10.13;;;20.10;99.90;;;;;;7339758;19;113140;-68
2022/07/24 01:16:40;;;;;;;11.93;10.70;;;20.10;99.90;;;;;;7339663;19;110021;-67
2022/07/24 01:19:07;;;;;;;13.30;10.35;;;20.10;99.90;;;;;;7340121;19;110658;-68
2022/07/24 01:21:35;;;;;;;12.43;10.40;;;20.00;99.90;;;;;;7339561;19;110706;-68
2022/07/24 01:24:03;;;;;;;11.35;10.20;;;20.00;99.90;;;;;;7339338;19;111246;-68
2022/07/24 01:26:30;;;;;;;16.50;10.90;;;19.90;99.90;;;;;;7345182;19;111472;-68
2022/07/24 01:29:00;;;;;;;14.32;10.35;;;19.90;99.90;;;;;;7335559;19;110188;-68
2022/07/24 01:31:27;;;;;;;12.70;10.05;;;19.80;99.90;;;;;;7339360;19;110376;-68
2022/07/24 01:33:54;;;;;;;17.08;11.48;;;19.80;99.90;;;;;;7339304;19;111360;-68
2022/07/24 01:36:21;;;;;;;15.63;11.68;;;19.80;99.90;;;;;;7336892;19;110070;-68
2022/07/24 01:38:48;;;;;;;16.35;12.00;;;19.70;99.90;;;;;;7335528;19;110370;-68
2022/07/24 01:41:17;;;;;;;17.75;12.20;;;19.70;99.90;;;;;;7338095;19;111186;-68
2022/07/24 01:43:44;;;;;;;13.25;11.70;;;19.70;99.90;;;;;;7339455;19;110217;-68
2022/07/24 01:46:11;;;;;;;12.68;11.48;;;19.70;99.90;;;;;;7338530;19;111597;-68
2022/07/24 01:48:41;;;;;;;14.20;11.57;;;19.70;99.90;;;;;;7341614;19;110847;-68
2022/07/24 01:51:09;;;;;;;12.23;10.70;;;19.70;99.90;;;;;;7337552;19;110915;-68
2022/07/24 01:53:36;;;;;;;17.02;11.55;;;19.70;99.90;;;;;;7337751;19;111733;-68
2022/07/24 01:56:03;;;;;;;12.52;11.23;;;19.70;99.90;;;;;;7335653;19;110724;-68
2022/07/24 01:58:31;;;;;;;14.05;12.40;;;19.70;99.90;;;;;;7338481;19;110364;-68
2022/07/24 02:00:58;;;;;;;13.98;12.45;;;19.60;99.90;;;;;;7338352;19;111820;-68
2022/07/24 02:03:25;;;;;;;13.38;11.85;;;19.60;99.90;;;;;;7337618;19;110413;-68
2022/07/24 02:05:52;;;;;;;14.40;12.95;;;19.60;99.90;;;;;;7337211;19;110618;-68
2022/07/24 02:08:19;;;;;;;28.55;14.77;;;19.60;99.90;;;;;;7339349;19;110751;-68
2022/07/24 02:10:46;;;;;;;20.92;15.68;;;19.60;99.90;;;;;;7333852;19;110909;-68
2022/07/24 02:13:13;;;;;;;18.95;16.23;;;19.60;99.90;;;;;;7335675;19;110472;-68
2022/07/24 02:15:40;;;;;;;21.08;16.75;;;19.60;99.90;;;;;;7335956;19;110555;-68
2022/07/24 02:18:07;;;;;;;21.42;17.08;;;19.60;99.90;;;;;;7337406;19;111438;-68
2022/07/24 02:20:34;;;;;;;21.92;16.98;;;19.60;99.90;;;;;;7336550;19;111754;-68
2022/07/24 02:23:01;;;;;;;21.77;17.25;;;19.50;99.90;;;;;;7337483;19;110445;-68
2022/07/24 02:25:28;;;;;;;26.05;18.60;;;19.60;99.90;;;;;;7337239;19;111725;-68
2022/07/24 02:27:55;;;;;;;27.48;19.58;;;19.50;99.90;;;;;;7335955;19;110729;-68
2022/07/24 02:30:24;;;;;;;25.02;19.08;;;19.50;99.90;;;;;;7342064;19;110303;-68
2022/07/24 02:32:51;;;;;;;24.58;18.17;;;19.40;99.90;;;;;;7335455;19;111604;-68
2022/07/24 02:35:18;;;;;;;28.38;20.80;;;19.20;99.90;;;;;;7334937;19;110256;-68
2022/07/24 02:37:45;;;;;;;26.88;21.30;;;19.10;99.90;;;;;;7336735;19;110458;-68
2022/07/24 02:40:14;;;;;;;26.55;19.48;;;19.10;99.90;;;;;;7336028;19;110584;-68
2022/07/24 02:42:42;;;;;;;30.50;21.08;;;19.10;99.90;;;;;;7334728;19;111219;-68
2022/07/24 02:45:10;;;;;;;29.73;21.90;;;19.20;99.90;;;;;;7335587;19;110847;-68
2022/07/24 02:47:47;;;;;;;36.50;24.77;;;19.20;99.90;;;;;;7335998;19;111410;-68
2022/07/24 02:50:15;;;;;;;38.83;25.60;;;19.30;99.90;;;;;;7334173;19;110103;-68
2022/07/24 02:52:42;;;;;;;38.33;24.58;;;19.30;99.90;;;;;;7349065;19;110374;-68
2022/07/24 02:55:09;;;;;;;32.63;24.80;;;19.30;99.90;;;;;;7343337;19;110194;-68
2022/07/24 02:57:36;;;;;;;38.30;26.33;;;19.20;99.90;;;;;;7342463;19;112258;-68
2022/07/24 03:00:07;;;;;;;48.15;29.90;;;19.10;99.90;;;;;;7342984;19;111163;-68
2022/07/24 03:02:35;;;;;;;43.88;29.92;;;18.90;99.90;;;;;;7343567;19;110001;-68
2022/07/24 03:05:03;;;;;;;52.88;32.67;;;18.80;99.90;;;;;;7341927;19;110488;-68
2022/07/24 03:07:31;;;;;;;49.72;32.70;;;18.80;99.90;;;;;;7343501;19;110739;-68
2022/07/24 03:09:58;;;;;;;48.40;33.90;;;18.70;99.90;;;;;;7344050;19;110585;-68
2022/07/24 03:12:25;;;;;;;44.40;31.10;;;18.70;99.90;;;;;;7343340;19;110520;-68
2022/07/24 03:14:52;;;;;;;52.00;32.75;;;18.80;99.90;;;;;;7348540;19;110827;-68
2022/07/24 03:17:19;;;;;;;50.33;34.50;;;18.80;99.90;;;;;;7340148;19;111412;-68
2022/07/24 03:19:46;;;;;;;51.95;32.70;;;18.80;99.90;;;;;;7340933;19;111125;-68
2022/07/24 03:22:13;;;;;;;58.80;35.33;;;18.80;99.90;;;;;;7343645;19;110571;-68
2022/07/24 03:24:40;;;;;;;50.53;32.63;;;18.80;99.90;;;;;;7343583;19;111692;-68
2022/07/24 03:27:07;;;;;;;57.42;35.00;;;18.70;99.90;;;;;;7342875;19;110826;-68
2022/07/24 03:29:34;;;;;;;56.45;37.15;;;18.60;99.90;;;;;;7338540;19;110116;-68
2022/07/24 03:32:01;;;;;;;54.10;35.88;;;18.60;99.90;;;;;;7342141;19;111569;-69
2022/07/24 03:34:28;;;;;;;57.25;36.35;;;18.60;99.90;;;;;;7342685;19;110999;-73
2022/07/24 03:36:55;;;;;;;56.38;36.63;;;18.60;99.90;;;;;;7347100;19;110203;-74
2022/07/24 03:39:22;;;;;;;57.58;36.28;;;18.60;99.90;;;;;;7340998;19;110868;-76
2022/07/24 03:41:50;;;;;;;63.65;40.00;;;18.60;99.90;;;;;;7344081;19;110205;-69
2022/07/24 03:44:17;;;;;;;67.38;38.38;;;18.60;99.90;;;;;;7342306;19;110659;-69
2022/07/24 03:46:43;;;;;;;57.90;38.75;;;18.60;99.90;;;;;;7341277;19;110768;-72
2022/07/24 03:49:11;;;;;;;66.10;40.78;;;18.60;99.90;;;;;;7340892;19;111698;-70
2022/07/24 03:51:38;;;;;;;66.72;40.92;;;18.60;99.90;;;;;;7341934;19;110563;-73
2022/07/24 03:54:05;;;;;;;65.00;42.25;;;18.70;99.90;;;;;;7342091;19;110951;-69
2022/07/24 03:56:32;;;;;;;72.63;44.05;;;18.70;99.90;;;;;;7341044;19;110548;-73
2022/07/24 03:58:59;;;;;;;68.07;42.92;;;18.60;99.90;;;;;;7346088;19;111540;-74
2022/07/24 04:01:26;;;;;;;61.40;39.58;;;18.60;99.90;;;;;;7338942;19;110171;-73
2022/07/24 04:03:53;;;;;;;63.17;39.40;;;18.60;99.90;;;;;;7339507;19;110333;-68
2022/07/24 04:06:20;;;;;;;68.40;40.85;;;18.60;99.90;;;;;;7341888;19;111035;-68
2022/07/24 04:08:47;;;;;;;63.55;41.20;;;18.60;99.90;;;;;;7341240;19;110440;-69
2022/07/24 04:11:14;;;;;;;62.33;40.55;;;18.60;99.90;;;;;;7339902;19;112850;-69
2022/07/24 04:13:42;;;;;;;61.58;39.75;;;18.60;99.90;;;;;;7339335;19;110731;-68
2022/07/24 04:16:09;;;;;;;67.57;39.03;;;18.60;99.90;;;;;;7338691;19;110695;-68
2022/07/24 04:18:36;;;;;;;58.40;37.17;;;18.60;99.90;;;;;;7344996;19;110485;-69
2022/07/24 04:21:04;;;;;;;53.75;36.33;;;18.60;99.90;;;;;;7340871;19;111088;-69
2022/07/24 04:23:31;;;;;;;59.75;37.63;;;18.50;99.90;;;;;;7340537;19;110563;-68
2022/07/24 04:25:58;;;;;;;58.33;37.40;;;18.40;99.90;;;;;;7340758;19;111490;-68
2022/07/24 04:28:25;;;;;;;58.95;36.65;;;18.50;99.90;;;;;;7335853;19;112545;-68
2022/07/24 04:30:52;;;;;;;60.17;37.85;;;18.50;99.90;;;;;;7339903;19;111030;-68
2022/07/24 04:33:19;;;;;;;57.70;36.53;;;18.50;99.90;;;;;;7337645;19;110504;-68
2022/07/24 04:35:46;;;;;;;58.42;37.40;;;18.40;99.90;;;;;;7339723;19;110255;-68
2022/07/24 04:38:14;;;;;;;55.88;35.08;;;18.40;99.90;;;;;;7339666;19;110635;-68
2022/07/24 04:40:41;;;;;;;55.15;36.33;;;18.40;99.90;;;;;;7346485;19;110806;-68
2022/07/24 04:43:08;;;;;;;53.65;35.50;;;18.40;99.90;;;;;;7339764;19;110994;-68
2022/07/24 04:45:37;;;;;;;55.60;35.13;;;18.40;99.90;;;;;;7339646;19;110776;-68
2022/07/24 04:48:05;;;;;;;52.78;33.00;;;18.40;99.90;;;;;;7339053;19;110388;-68
2022/07/24 04:50:33;;;;;;;48.92;32.65;;;18.40;99.90;;;;;;7341123;19;110441;-68
2022/07/24 04:53:00;;;;;;;47.92;31.58;;;18.40;99.90;;;;;;7338960;19;110754;-68
2022/07/24 04:55:28;;;;;;;49.63;31.08;;;18.50;99.90;;;;;;7339004;19;110236;-68
2022/07/24 04:57:55;;;;;;;49.67;31.13;;;18.50;99.90;;;;;;7336788;19;110898;-68
2022/07/24 05:00:22;;;;;;;42.28;29.98;;;18.50;99.90;;;;;;7339858;19;110754;-68
2022/07/24 05:02:49;;;;;;;43.42;30.88;;;18.50;99.90;;;;;;7345290;19;111385;-68
2022/07/24 05:05:16;;;;;;;42.47;29.55;;;18.50;99.90;;;;;;7339297;19;110496;-68
2022/07/24 05:07:43;;;;;;;47.47;29.20;;;18.60;99.90;;;;;;7339034;19;110138;-68
2022/07/24 05:10:11;;;;;;;44.38;28.85;;;18.60;99.90;;;;;;7338437;19;110407;-68
2022/07/24 05:12:38;;;;;;;41.20;30.20;;;18.60;99.90;;;;;;7340273;19;111176;-69
2022/07/24 05:15:07;;;;;;;43.47;29.95;;;18.60;99.90;;;;;;7338263;19;110041;-63
2022/07/24 05:17:35;;;;;;;40.03;29.48;;;18.80;99.90;;;;;;7336944;19;110324;-63
2022/07/24 05:20:07;;;;;;;46.67;31.85;;;18.80;99.90;;;;;;7339343;19;110745;-63
2022/07/24 05:22:34;;;;;;;46.38;29.40;;;18.80;99.90;;;;;;7339560;19;110086;-63
2022/07/24 05:25:00;;;;;;;47.72;30.40;;;18.90;99.90;;;;;;7345098;19;111526;-63
2022/07/24 05:27:27;;;;;;;45.20;32.03;;;18.90;99.90;;;;;;7337719;19;111028;-63
2022/07/24 05:29:55;;;;;;;48.47;30.58;;;19.00;99.90;;;;;;7336048;19;110644;-63
2022/07/24 05:32:22;;;;;;;42.08;30.25;;;19.00;99.90;;;;;;7336786;19;110743;-63
2022/07/24 05:34:49;;;;;;;47.15;31.08;;;19.10;99.90;;;;;;7339389;19;109845;-63
2022/07/24 05:37:16;;;;;;;41.95;28.70;;;19.20;99.90;;;;;;7336807;19;110655;-63
2022/07/24 05:39:43;;;;;;;41.20;29.48;;;19.20;99.90;;;;;;7338919;19;110741;-63
2022/07/24 05:42:10;;;;;;;43.85;30.13;;;19.30;99.90;;;;;;7338809;19;110165;-63
2022/07/24 05:44:38;;;;;;;41.08;28.50;;;19.40;99.90;;;;;;7338448;19;110880;-64
2022/07/24 05:47:06;;;;;;;46.03;31.58;;;19.40;99.90;;;;;;7343463;19;110787;-63
2022/07/24 05:49:34;;;;;;;46.90;28.77;;;19.50;99.90;;;;;;7338609;19;110838;-63
2022/07/24 05:52:02;;;;;;;44.42;29.60;;;19.60;99.90;;;;;;7339634;19;110826;-65
2022/07/24 05:54:35;;;;;;;41.97;28.55;;;19.60;99.90;;;;;;7338882;19;110130;-64
2022/07/24 05:57:02;;;;;;;39.72;27.45;;;19.70;99.90;;;;;;7337644;19;110493;-63
2022/07/24 05:59:29;;;;;;;37.80;26.42;;;19.80;99.90;;;;;;7339967;19;111795;-64
2022/07/24 06:01:56;;;;;;;33.72;24.85;;;19.90;99.90;;;;;;7337662;19;109954;-63
2022/07/24 06:04:23;;;;;;;36.42;24.95;;;20.00;99.90;;;;;;7339480;19;110655;-64
2022/07/24 06:06:50;;;;;;;39.80;24.95;;;20.10;99.90;;;;;;7343319;19;111852;-64
2022/07/24 06:09:17;;;;;;;33.55;23.27;;;20.20;99.90;;;;;;7335892;19;110382;-63
2022/07/24 06:11:44;;;;;;;30.33;21.85;;;20.30;99.90;;;;;;7338069;19;111785;-64
2022/07/24 06:14:11;;;;;;;34.67;21.40;;;20.40;99.90;;;;;;7333796;19;110488;-64
2022/07/24 06:16:38;;;;;;;33.75;20.65;;;20.50;99.90;;;;;;7334325;19;110725;-64
2022/07/24 06:19:05;;;;;;;31.50;20.65;;;20.60;99.90;;;;;;7336549;19;111292;-64
2022/07/24 06:21:33;;;;;;;24.92;18.90;;;20.60;99.90;;;;;;7335069;19;111272;-68
2022/07/24 06:24:00;;;;;;;30.42;19.95;;;20.70;99.90;;;;;;7336755;19;110702;-64
2022/07/24 06:26:27;;;;;;;21.40;17.30;;;20.80;99.90;;;;;;7333167;19;112393;-65
2022/07/24 06:28:56;;;;;;;25.52;16.23;;;20.90;99.90;;;;;;7338138;19;110181;-64
2022/07/24 06:31:23;;;;;;;23.63;17.10;;;21.00;99.90;;;;;;7333624;19;110933;-64
2022/07/24 06:33:50;;;;;;;17.40;14.45;;;21.10;99.90;;;;;;7335707;19;110444;-64
2022/07/24 06:36:17;;;;;;;19.40;14.52;;;21.20;99.90;;;;;;7332964;19;110350;-64
2022/07/24 06:38:44;;;;;;;21.35;14.82;;;21.30;99.90;;;;;;7333341;19;113716;-64
2022/07/24 06:41:11;;;;;;;15.65;11.95;;;21.40;99.90;;;;;;7335648;19;110944;-64
2022/07/24 06:43:38;;;;;;;14.73;12.00;;;21.50;99.90;;;;;;7338608;19;111755;-64
2022/07/24 06:46:06;;;;;;;13.38;11.60;;;21.50;99.90;;;;;;7337134;19;110710;-64
2022/07/24 06:48:33;;;;;;;13.50;10.27;;;21.70;99.90;;;;;;7336658;19;110381;-64
2022/07/24 06:51:00;;;;;;;12.05;10.35;;;21.80;99.90;;;;;;7343035;19;110978;-65
2022/07/24 06:53:27;;;;;;;12.32;9.82;;;21.90;99.90;;;;;;7335403;19;109904;-64
2022/07/24 06:55:55;;;;;;;13.20;11.00;;;22.00;99.90;;;;;;7340054;19;109766;-64
2022/07/24 06:58:22;;;;;;;13.30;10.85;;;22.10;99.90;;;;;;7333204;19;111180;-64
2022/07/24 07:00:49;;;;;;;10.93;9.15;;;22.20;99.90;;;;;;7336535;19;110441;-64
2022/07/24 07:03:17;;;;;;;14.00;8.93;;;22.30;99.90;;;;;;7339091;19;110447;-64
2022/07/24 07:05:44;;;;;;;9.02;7.32;;;22.40;99.90;;;;;;7340914;19;108224;-64
2022/07/24 07:08:11;;;;;;;10.65;6.53;;;22.50;99.90;;;;;;7340239;19;111623;-64
2022/07/24 07:10:40;;;;;;;7.93;5.97;;;22.60;99.90;;;;;;7338062;19;108024;-64
2022/07/24 07:13:07;;;;;;;7.38;4.72;;;22.70;99.90;;;;;;7339924;19;108420;-64
2022/07/24 07:15:34;;;;;;;9.07;5.00;;;22.70;99.90;;;;;;7341502;19;107249;-64
2022/07/24 07:18:01;;;;;;;7.55;5.22;;;22.80;99.90;;;;;;7336650;19;107401;-73
2022/07/24 07:20:28;;;;;;;10.27;5.03;;;22.90;99.90;;;;;;7338533;19;107879;-73
2022/07/24 07:22:55;;;;;;;6.05;5.30;;;23.00;99.90;;;;;;7339476;19;107700;-74
2022/07/24 07:25:22;;;;;;;8.43;5.75;;;23.00;99.90;;;;;;7339424;19;109570;-72
2022/07/24 07:27:50;;;;;;;12.65;6.53;;;23.10;99.90;;;;;;7338067;19;108961;-72
2022/07/24 07:30:17;;;;;;;8.45;5.47;;;23.20;99.90;;;;;;7337161;19;108378;-73
2022/07/24 07:32:44;;;;;;;7.20;5.70;;;23.30;99.90;;;;;;7337147;19;112209;-73
2022/07/24 07:35:11;;;;;;;9.77;6.03;;;23.40;99.90;;;;;;7344259;19;109230;-73
2022/07/24 07:37:47;;;;;;;8.70;5.80;;;23.50;99.90;;;;;;7342259;19;107283;-72
2022/07/24 07:40:14;;;;;;;6.53;5.93;;;23.50;99.90;;;;;;7344869;19;108391;-72
2022/07/24 07:42:41;;;;;;;9.05;6.20;;;23.60;99.90;;;;;;7346976;19;107081;-73
2022/07/24 07:45:09;;;;;;;7.38;5.95;;;23.70;99.90;;;;;;7346288;19;108019;-73
2022/07/24 07:47:37;;;;;;;11.65;5.90;;;23.70;99.90;;;;;;7346542;19;108884;-73
2022/07/24 07:50:04;;;;;;;9.15;5.55;;;23.80;99.90;;;;;;7344602;19;107972;-81
2022/07/24 07:52:31;;;;;;;7.50;5.30;;;23.90;99.90;;;;;;7346444;19;107079;-80
2022/07/24 07:54:59;;;;;;;4.78;4.10;;;24.00;99.90;;;;;;7344208;19;107873;-73
2022/07/24 07:57:27;;;;;;;5.40;4.22;;;24.10;99.90;;;;;;7349477;19;107399;-77
2022/07/24 08:00:14;;;;;;;5.20;3.83;;;24.10;99.90;;;;;;7345233;19;110234;-77
2022/07/24 08:02:41;;;;;;;4.97;3.83;;;24.20;99.90;;;;;;7345275;19;107929;-75
2022/07/24 08:05:09;;;;;;;6.78;4.00;;;24.30;99.90;;;;;;7346609;19;107163;-76
2022/07/24 08:07:36;;;;;;;6.07;3.75;;;24.30;99.90;;;;;;7344956;19;108481;-76
2022/07/24 08:10:07;;;;;;;4.10;3.33;;;24.50;99.90;;;;;;7340130;19;109632;-74
2022/07/24 08:12:37;;;;;;;4.28;3.15;;;24.50;99.90;;;;;;7342476;19;110604;-75
2022/07/24 08:15:06;;;;;;;6.25;3.13;;;24.60;99.90;;;;;;7345306;19;108942;-75
2022/07/24 08:22:51;;;;;;;4.85;2.65;;;24.80;99.50;;;;;;7338060;19;107505;-74
2022/07/24 08:25:18;;;;;;;4.45;2.08;;;24.80;99.70;;;;;;7339467;19;107518;-74
2022/07/24 08:32:56;;;;;;;3.47;1.88;;;25.20;98.80;;;;;;7338785;19;109923;-74
2022/07/24 08:35:36;;;;;;;4.85;2.17;;;25.20;98.30;;;;;;7338553;19;110090;-73
2022/07/24 08:38:03;;;;;;;4.25;2.08;;;25.20;98.30;;;;;;7339989;19;109356;-84
2022/07/24 08:40:36;;;;;;;3.38;1.90;;;25.30;98.40;;;;;;7346398;19;111576;-84
2022/07/24 08:43:06;;;;;;;2.03;1.70;;;25.40;98.60;;;;;;7332679;19;110930;-74
2022/07/24 08:45:40;;;;;;;2.35;1.80;;;25.40;98.60;;;;;;7338517;19;109838;-73
2022/07/24 08:48:09;;;;;;;5.18;1.83;;;25.50;98.30;;;;;;7336755;19;111041;-73
2022/07/24 08:50:41;;;;;;;3.05;1.60;;;25.70;97.80;;;;;;7338601;19;110134;-73
2022/07/24 08:53:09;;;;;;;2.90;1.77;;;25.70;97.50;;;;;;7339594;19;109781;-73
2022/07/24 08:55:36;;;;;;;3.00;1.80;;;25.90;97.60;;;;;;7338757;19;111216;-72
2022/07/24 08:58:03;;;;;;;2.97;1.58;;;26.00;97.50;;;;;;7336167;19;109697;-72
2022/07/24 09:00:31;;;;;;;2.70;1.70;;;26.00;97.40;;;;;;7336508;19;111263;-73
2022/07/24 09:02:59;;;;;;;1.70;1.60;;;26.10;97.40;;;;;;7344908;19;109665;-74
2022/07/24 09:05:26;;;;;;;2.10;1.50;;;26.10;97.10;;;;;;7337288;19;110294;-73
2022/07/24 09:08:10;;;;;;;2.83;1.75;;;26.20;97.10;;;;;;7335588;19;110885;-73
2022/07/24 09:10:38;;;;;;;2.30;1.85;;;26.20;96.80;;;;;;7329468;19;111508;-73
2022/07/24 09:13:15;;;;;;;3.20;1.90;;;26.30;96.70;;;;;;7329723;19;112249;-73
2022/07/24 09:15:48;;;;;;;4.40;1.48;;;26.40;96.80;;;;;;7336516;19;113535;-73
2022/07/24 09:18:33;;;;;;;4.75;1.90;;;26.50;97.00;;;;;;7334745;19;111025;-73
2022/07/24 09:21:13;;;;;;;2.97;1.55;;;26.70;96.70;;;;;;7336666;19;111653;-73
2022/07/24 09:23:44;;;;;;;2.50;1.48;;;26.70;96.60;;;;;;7337746;19;109336;-74
2022/07/24 09:26:12;;;;;;;2.92;1.80;;;26.80;96.10;;;;;;7341295;19;109818;-73
2022/07/24 09:28:49;;;;;;;4.20;1.92;;;26.80;96.30;;;;;;7334513;19;111401;-74
2022/07/24 09:31:16;;;;;;;7.50;1.50;;;26.90;96.50;;;;;;7338711;19;109690;-74
2022/07/24 09:33:44;;;;;;;4.32;1.70;;;27.00;96.30;;;;;;7336626;19;112252;-74
2022/07/24 09:36:16;;;;;;;4.53;1.80;;;27.20;96.00;;;;;;7336950;19;110949;-73
2022/07/24 09:38:48;;;;;;;2.42;1.80;;;27.30;96.00;;;;;;7333933;19;109593;-73
2022/07/24 09:41:23;;;;;;;3.47;1.50;;;27.30;95.50;;;;;;7331194;19;111725;-74
2022/07/24 09:44:02;;;;;;;2.17;1.50;;;27.50;95.40;;;;;;7332724;19;111190;-74
2022/07/24 09:46:55;;;;;;;1.63;1.27;;;27.60;95.10;;;;;;7335240;19;109996;-73
2022/07/24 09:49:23;;;;;;;1.77;1.33;;;27.60;95.00;;;;;;7335958;19;110643;-73
2022/07/24 09:52:15;;;;;;;2.58;1.70;;;27.60;94.70;;;;;;7336589;19;109770;-73
2022/07/24 09:54:50;;;;;;;1.35;1.20;;;27.70;94.70;;;;;;7332076;19;110319;-73
2022/07/24 09:57:27;;;;;;;6.45;1.65;;;27.80;94.40;;;;;;7331703;19;109904;-73
2022/07/24 09:59:57;;;;;;;3.92;1.50;;;27.80;94.60;;;;;;7332256;19;109479;-73
2022/07/24 10:02:30;;;;;;;2.75;1.35;;;27.90;93.80;;;;;;7332118;19;115195;-73
2022/07/24 10:04:59;;;;;;;3.17;1.33;;;28.00;93.50;;;;;;7331307;19;110209;-73
2022/07/24 10:07:28;;;;;;;3.45;1.30;;;28.00;93.60;;;;;;7336169;19;109690;-72
2022/07/24 10:09:57;;;;;;;2.72;1.30;;;28.10;93.70;;;;;;7336126;19;109691;-74
2022/07/24 10:12:26;;;;;;;1.80;1.30;;;28.30;93.20;;;;;;7337980;19;112237;-73
2022/07/24 10:14:56;;;;;;;3.85;1.42;;;28.40;92.90;;;;;;7333522;19;110779;-73
2022/07/24 10:17:52;;;;;;;4.43;1.30;;;28.50;93.40;;;;;;7333310;19;110209;-74
2022/07/24 10:20:38;;;;;;;3.03;1.20;;;28.50;93.20;;;;;;7334012;19;109717;-74
2022/07/24 10:23:25;;;;;;;4.47;1.45;;;28.60;92.50;;;;;;7333862;19;113517;-73
2022/07/24 10:26:23;;;;;;;2.08;1.10;;;28.60;91.30;;;;;;7330922;19;111170;-74
2022/07/24 10:28:59;;;;;;;2.00;1.20;;;28.60;92.40;;;;;;7335358;19;109624;-74
2022/07/24 10:31:28;;;;;;;2.17;1.20;;;28.60;92.20;;;;;;7335402;19;109487;-74
2022/07/24 10:33:59;;;;;;;3.28;1.30;;;28.60;91.60;;;;;;7339208;19;110390;-74
2022/07/24 10:36:30;;;;;;;2.38;1.30;;;28.70;91.80;;;;;;7338321;19;113197;-74
2022/07/24 10:39:09;;;;;;;5.47;1.60;;;28.80;91.90;;;;;;7331954;19;111261;-75
2022/07/24 10:41:36;;;;;;;2.80;1.55;;;28.90;91.80;;;;;;7333573;19;109444;-74
2022/07/24 10:44:14;;;;;;;2.53;1.40;;;28.90;91.30;;;;;;7332959;19;110303;-74
2022/07/24 10:47:04;;;;;;;1.98;1.70;;;29.10;91.70;;;;;;7330911;19;112637;-74
2022/07/24 10:49:34;;;;;;;2.70;1.40;;;29.20;92.00;;;;;;7329881;19;110070;-75
2022/07/24 10:52:01;;;;;;;3.65;1.50;;;29.30;92.20;;;;;;7332251;19;110449;-74
2022/07/24 10:54:28;;;;;;;3.90;1.42;;;29.40;91.80;;;;;;7335801;19;112222;-75
2022/07/24 10:56:55;;;;;;;3.00;1.30;;;29.50;91.30;;;;;;7337850;19;110550;-75
2022/07/24 10:59:37;;;;;;;3.35;1.40;;;29.50;90.90;;;;;;7327825;19;110423;-75
2022/07/24 11:02:27;;;;;;;2.33;1.58;;;29.50;90.30;;;;;;7334244;19;110574;-73
2022/07/24 11:05:31;;;;;;;2.83;1.05;;;29.50;90.90;;;;;;7333566;19;113955;-74
2022/07/24 11:08:31;;;;;;;1.40;1.20;;;29.60;90.40;;;;;;7329933;19;111251;-76
2022/07/24 11:11:05;;;;;;;3.25;1.55;;;29.60;90.40;;;;;;7332045;19;109969;-75
2022/07/24 11:13:32;;;;;;;2.80;1.67;;;29.60;90.90;;;;;;7341511;19;110610;-73
2022/07/24 11:16:10;;;;;;;2.47;1.50;;;29.70;91.00;;;;;;7342902;19;111670;-74
2022/07/24 11:18:49;;;;;;;2.15;1.40;;;29.80;89.40;;;;;;7335482;19;109444;-74
2022/07/24 11:21:31;;;;;;;4.28;1.90;;;29.90;90.40;;;;;;7342971;19;109763;-74
2022/07/24 11:24:16;;;;;;;3.10;1.58;;;29.90;90.10;;;;;;7339249;19;109764;-77
2022/07/24 11:26:59;;;;;;;2.00;1.45;;;30.00;89.40;;;;;;7340991;19;110404;-76
2022/07/24 11:29:34;;;;;;;1.42;1.27;;;30.00;90.10;;;;;;7339255;19;111158;-77
2022/07/24 11:32:03;;;;;;;2.58;1.33;;;30.00;90.40;;;;;;7337426;19;111372;-77
2022/07/24 11:34:32;;;;;;;5.60;1.50;;;30.10;89.10;;;;;;7338902;19;110843;-76
2022/07/24 11:37:00;;;;;;;4.35;1.23;;;30.30;88.60;;;;;;7339705;19;111585;-75
2022/07/24 11:39:34;;;;;;;1.70;1.20;;;30.40;88.50;;;;;;7340552;19;109825;-74
2022/07/24 11:42:04;;;;;;;1.80;1.33;;;30.50;88.60;;;;;;7341684;19;110688;-75
2022/07/24 11:44:39;;;;;;;3.67;1.15;;;30.50;88.00;;;;;;7346371;19;110727;-75
2022/07/24 11:47:08;;;;;;;3.53;1.38;;;30.50;86.90;;;;;;7343281;19;110394;-77
2022/07/24 11:49:52;;;;;;;3.67;1.38;;;30.60;88.10;;;;;;7342505;19;111895;-75
2022/07/24 11:52:41;;;;;;;1.70;1.30;;;30.70;86.90;;;;;;7341945;19;110873;-76
2022/07/24 11:55:07;;;;;;;;;;;30.90;85.00;;;;;;7344014;19;110467;-76
2022/07/24 11:57:45;;;;;;;2.75;1.15;;;31.00;87.00;;;;;;7346076;19;112027;-75
2022/07/24 12:00:32;;;;;;;3.17;1.20;;;31.10;85.40;;;;;;7337743;19;109397;-76
2022/07/24 12:03:03;;;;;;;1.27;0.95;;;31.10;85.10;;;;;;7343417;19;110188;-77
2022/07/24 12:05:34;;;;;;;1.83;1.38;;;31.30;86.20;;;;;;7343219;19;110722;-76
2022/07/24 12:08:04;;;;;;;1.88;1.00;;;31.40;85.20;;;;;;7346642;19;109485;-76
2022/07/24 12:10:32;;;;;;;2.53;1.20;;;31.60;84.00;;;;;;7343454;19;110107;-77
2022/07/24 12:12:59;;;;;;;2.00;1.50;;;31.70;84.60;;;;;;7342825;19;109431;-76
2022/07/24 12:15:26;;;;;;;2.25;1.10;;;31.80;82.40;;;;;;7340291;19;109898;-76
2022/07/24 12:18:00;;;;;;;3.63;1.05;;;31.80;82.80;;;;;;7343196;19;112230;-76
2022/07/24 12:20:29;;;;;;;3.95;1.23;;;31.90;82.80;;;;;;7341704;19;111385;-75
2022/07/24 12:22:58;;;;;;;3.50;0.98;;;32.00;81.40;;;;;;7338739;19;110855;-77
2022/07/24 12:25:26;;;;;;;4.38;1.10;;;32.00;80.90;;;;;;7341446;19;111682;-76
2022/07/24 12:28:14;;;;;;;3.33;1.15;;;32.20;83.20;;;;;;7339739;19;109587;-77
2022/07/24 12:30:44;;;;;;;2.30;1.17;;;32.40;83.80;;;;;;7345280;19;113197;-77
2022/07/24 12:33:14;;;;;;;1.83;1.10;;;32.60;82.50;;;;;;7340227;19;109448;-78
2022/07/24 12:36:01;;;;;;;1.33;1.00;;;32.70;80.80;;;;;;7338220;19;111011;-77
2022/07/24 12:38:32;;;;;;;2.40;0.90;;;32.70;81.30;;;;;;7340070;19;115521;-77
2022/07/24 12:41:10;;;;;;;2.08;0.90;;;32.80;81.70;;;;;;7341792;19;109477;-77
2022/07/24 12:43:47;;;;;;;2.90;0.80;;;32.90;80.10;;;;;;7341741;19;109510;-77
2022/07/24 12:46:16;;;;;;;2.60;1.00;;;32.80;78.90;;;;;;7339961;19;111842;-77
2022/07/24 12:49:05;;;;;;;5.43;0.90;;;32.80;77.10;;;;;;7341046;19;109985;-77